OMSJ/SHJ METAR and TAF weather

Enter ICAO airport designator
Station Type Date Time Source
OMSJ METAR 2021/02/24 18:00 UTC NOAA

OMSJ 241800Z VRB01KT CAVOK 25/14 Q1013 WS ALL RWY TEMPO 27022KT 4000 SQ


Station Type Date Time Source
OMSJ Decoded METAR 2021/02/24 18:00 UTC NOAA

Sharjah International Airport, United Arab Emirates (OMSJ) 25-20N 055-31E 33M
Feb 24, 2021 - 01:00 PM EST / 2021.02.24 1800 UTC
Wind: Variable at 1 MPH (1 KT):0
Visibility: greater than 7 mile(s):0
Temperature: 77 F (25 C)
Dew Point: 57 F (14 C)
Relative Humidity: 50%
Pressure (altimeter): 29.91 in. Hg (1013 hPa)
ob: OMSJ 241800Z VRB01KT CAVOK 25/14 Q1013 WS ALL RWY TEMPO 27022KT 4000 SQ
cycle: 18

Station Type Date Time Source
OMSJ TAF 2021/02/24 18:06 UTC NOAA

TAF COR OMSJ 241703Z 2418/2600 16005KT 8000 NSC PROB30
TEMPO 2418/2505 VRB20G30KT 4000 TSRA BKN040CB
BECMG 2509/2511 34012KT
BECMG 2515/2517 VRB02KT

Example: see airport list